Warning: Javascript must be enabled to use all the features on this page!


Page Loading - Please Wait...

Click to hideNews Bulletins

Peak Streamflow for Minnesota

USGS 05287890 ELM CREEK NR CHAMPLIN, MN

Hennepin County, Minnesota
Hydrologic Unit Code 07010206
Latitude  45°09'48", Longitude  93°26'11" NAD27
Drainage area 86.0  square miles
Gage datum 850.70 feet above NGVD29
Output formats
Table
Graph
Tab-separated file
peakfq (watstore) format
Reselect output format
Water
Year
Date Gage
Height
(feet)
Stream-
flow
(cfs)
1979 1979-04-04 8.36 307
1980 1980-03-25 7.28 199
1981 1981-06-15 4.40 44.0
1982 1982-04-03 9.23 471
1983 1983-03-09 8.98 408
1984 1984-02-25 8.65 341
1985 1985-03-18 9.50 579
1986 1986-03-27 9.93 812
1987 1987-08-01 7.49 185
1988 1988-03-27 4.96 39.0
1989 1989-03-31 7.25 159
1990 1990-08-01 7.70 225
1991 1991-06-01 8.91 371
1992 1992-03-08 8.98 380
1993 1993-06-22 8.41 315
1994 1994-04-30 9.69 669
1995 1995-03-17 8.15 237
1996 1996-03-19 9.02 407
1997 1997-04-01 9.33 511
1998 1998-04-05 8.33 306
1999 1999-05-15 9.40 538
2000 2000-07-13 6.19 112
2001 2001-04-25 10.02 875
2002 2002-05-10 9.44 554
2003 2003-06-28 9.69 695
2004 2004-06-03 8.85 350
2005 2004-10-30 6.46 118
2006 2005-10-09 8.45 295
2007 2007-03-17 7.93 223
2008 2008-05-04 7.44 205
2009 2009-03-27 6.24 119
2010 2010-03-17 8.83 369
2011 2011-03-24 9.81 803
2012 2012-05-29 9.43 568
2013 2013-06-26 8.72 389
2014 2014-05-01 9.79 803
2015 2015-07-19 6.25 127
2016 2016-09-24 10.25 1,220
2017 2017-05-23 9.02 482
2018 2018-04-25 8.71 405
2019 2019-03-23 9.50R 836R
?
  Peak Gage-Height Qualification Codes.
?
  Peak Streamflow Qualification Codes.